Time;durP1;ratioP1;P1;durP2;ratioP2;P2;SDS_P1;SDS_P2;PMS_P1;PMS_P2;Temp;Humidity;BMP_temperature;BMP_pressure;BME280_temperature;BME280_humidity;BME280_pressure;Samples;Min_cycle;Max_cycle;Signal;HPM_P1;HPM_P2
2021/10/22 00:10:03;;;;;;;9.13;4.67;;;;;;;11.14;90.40;100161.00;30764742;28;20051;-74
2021/10/22 00:25:05;;;;;;;8.63;5.23;;;;;;;11.18;90.67;100156.25;30750127;28;20515;-74
2021/10/22 00:40:08;;;;;;;11.60;5.50;;;;;;;11.20;89.94;100143.03;30764037;28;20070;-73
2021/10/22 00:55:14;;;;;;;9.80;5.83;;;;;;;11.15;90.99;100116.34;30753908;28;20058;-73
2021/10/22 01:10:17;;;;;;;9.80;5.37;;;;;;;11.16;90.93;100106.25;30756996;28;20057;-75
2021/10/22 01:25:23;;;;;;;14.03;5.73;;;;;;;11.20;91.22;100107.69;30765260;28;20308;-74
2021/10/22 01:40:25;;;;;;;13.87;7.07;;;;;;;11.22;91.65;100108.06;30765891;28;20541;-73
2021/10/22 01:55:27;;;;;;;16.23;7.60;;;;;;;11.23;91.84;100097.94;30771117;28;20110;-75
2021/10/22 02:10:30;;;;;;;12.93;5.47;;;;;;;11.16;92.52;100104.28;30739292;28;20141;-74
2021/10/22 02:25:31;;;;;;;17.77;7.90;;;;;;;11.19;92.75;100108.13;30760403;28;20511;-73
2021/10/22 02:40:33;;;;;;;17.30;6.93;;;;;;;11.22;93.44;100108.06;30763981;28;20047;-74
2021/10/22 02:55:35;;;;;;;18.00;7.83;;;;;;;11.28;93.83;100100.94;30755693;28;20061;-73
2021/10/22 03:10:37;;;;;;;21.93;7.67;;;;;;;11.34;94.51;100075.97;30766571;28;20054;-75
2021/10/22 03:25:39;;;;;;;14.10;7.20;;;;;;;11.41;95.41;100075.78;30759789;28;20074;-74
2021/10/22 03:40:41;;;;;;;17.17;8.63;;;;;;;11.52;94.76;100054.56;30787734;28;20051;-73
2021/10/22 03:55:42;;;;;;;14.13;7.37;;;;;;;11.54;96.39;100052.19;30744491;28;20047;-74
2021/10/22 04:10:44;;;;;;;13.03;6.83;;;;;;;11.56;95.83;100063.41;30778599;28;20063;-73
2021/10/22 04:25:46;;;;;;;15.03;8.60;;;;;;;11.67;96.08;100077.50;30776713;28;20063;-75
2021/10/22 04:40:52;;;;;;;20.40;9.70;;;;;;;11.88;96.67;100101.47;30737991;28;21652;-75
2021/10/22 04:55:54;;;;;;;21.67;9.63;;;;;;;12.08;96.16;100138.69;30744698;28;20073;-76
2021/10/22 05:10:57;;;;;;;15.80;8.57;;;;;;;12.26;95.74;100149.91;30758549;28;20054;-74
2021/10/22 05:25:58;;;;;;;21.13;8.80;;;;;;;12.38;95.72;100154.63;30748059;28;20059;-75
2021/10/22 05:41:00;;;;;;;17.70;9.23;;;;;;;12.45;95.18;100143.56;30748099;28;20503;-76
2021/10/22 05:56:02;;;;;;;15.90;8.87;;;;;;;12.55;93.88;100150.66;30737787;28;20062;-77
2021/10/22 06:11:10;;;;;;;19.10;10.07;;;;;;;12.63;93.06;100162.91;30724315;28;20145;-77
2021/10/22 06:26:12;;;;;;;16.73;8.83;;;;;;;12.72;92.15;100186.78;30758050;28;20067;-75
2021/10/22 06:41:13;;;;;;;16.97;9.60;;;;;;;12.91;91.15;100198.72;30776981;28;20582;-78
2021/10/22 06:56:15;;;;;;;25.83;12.63;;;;;;;13.11;89.70;100182.97;30761653;28;20094;-76
2021/10/22 07:11:18;;;;;;;21.50;10.20;;;;;;;13.70;86.67;100191.78;30768026;28;20522;-77
2021/10/22 07:26:20;;;;;;;18.80;10.57;;;;;;;15.14;81.10;100168.91;30785357;28;20517;-76
2021/10/22 07:41:22;;;;;;;23.10;9.63;;;;;;;16.48;75.71;100167.50;30803367;28;20061;-77
2021/10/22 07:56:24;;;;;;;16.02;8.82;;;;;;;18.34;67.59;100231.88;30799489;28;20135;-76
2021/10/22 08:11:26;;;;;;;21.33;9.68;;;;;;;17.73;66.85;100231.25;30776789;28;20047;-76
2021/10/22 08:26:28;;;;;;;15.52;9.52;;;;;;;19.50;59.23;100207.78;30791202;28;20069;-76
2021/10/22 08:41:37;;;;;;;16.80;9.82;;;;;;;20.98;54.13;100207.91;30794555;28;20055;-75
2021/10/22 08:56:40;;;;;;;16.93;10.00;;;;;;;21.92;50.75;100210.69;30805327;28;20057;-78
2021/10/22 09:11:47;;;;;;;33.13;19.48;;;;;;;22.19;48.08;100205.81;30732714;28;20537;-75
2021/10/22 09:26:51;;;;;;;14.18;6.95;;;;;;;22.82;45.86;100194.47;30754601;28;20162;-76
2021/10/22 09:42:00;;;;;;;16.70;7.93;;;;;;;23.28;43.70;100203.06;30775450;28;20090;-78
2021/10/22 09:57:05;;;;;;;14.77;7.22;;;;;;;24.31;42.98;100211.50;30739346;28;20484;-78
2021/10/22 10:12:07;;;;;;;11.75;7.90;;;;;;;24.86;40.82;100201.34;30733186;28;20051;-78
2021/10/22 10:27:15;;;;;;;12.03;7.60;;;;;;;25.00;39.88;100197.50;30733761;29;20066;-77
2021/10/22 10:42:23;;;;;;;17.08;7.97;;;;;;;24.83;39.44;100200.34;30734359;28;20119;-76
2021/10/22 10:57:25;;;;;;;11.93;7.30;;;;;;;24.86;39.30;100209.66;30792509;28;20043;-78
2021/10/22 11:12:27;;;;;;;14.40;7.93;;;;;;;24.90;38.92;100210.16;30747661;28;20055;-77
2021/10/22 11:27:29;;;;;;;14.20;7.57;;;;;;;25.49;37.54;100199.13;30790949;28;20059;-77
2021/10/22 11:42:32;;;;;;;16.97;8.40;;;;;;;26.03;35.18;100189.22;30769835;28;20053;-78
2021/10/22 11:57:35;;;;;;;13.10;7.93;;;;;;;25.92;35.40;100183.81;30835782;28;20082;-78
2021/10/22 12:12:40;;;;;;;17.45;8.63;;;;;;;23.88;35.83;100170.25;30782567;28;20418;-77
2021/10/22 12:27:53;;;;;;;11.55;7.13;;;;;;;21.40;39.51;100183.22;30776289;28;20052;-77
2021/10/22 12:43:05;;;;;;;11.03;6.77;;;;;;;20.40;40.94;100176.69;30744057;28;20065;-76
2021/10/22 12:58:18;;;;;;;9.93;5.55;;;;;;;19.86;41.89;100173.50;30758952;28;20053;-78
2021/10/22 13:28:37;;;;;;;9.25;6.13;;;;;;;19.09;43.37;100190.31;30772549;28;20059;-77
2021/10/22 13:43:39;;;;;;;14.60;6.30;;;;;;;19.12;44.35;100186.63;30759881;28;20059;-77
2021/10/22 13:58:41;;;;;;;13.10;6.65;;;;;;;18.74;46.06;100190.94;30762558;28;20144;-77
2021/10/22 14:28:57;;;;;;;14.75;8.43;;;;;;;18.17;49.72;100189.56;30777759;28;20058;-77
2021/10/22 14:44:04;;;;;;;14.57;8.05;;;;;;;17.89;51.17;100189.72;30806083;28;20055;-77
2021/10/22 14:59:09;;;;;;;11.65;7.70;;;;;;;17.65;52.02;100203.41;30793321;28;20052;-77
2021/10/22 15:14:11;;;;;;;23.33;11.50;;;;;;;17.43;53.07;100226.78;30804795;28;20124;-78
2021/10/22 15:29:13;;;;;;;24.17;13.18;;;;;;;17.24;54.07;100243.28;30812939;28;20057;-77
2021/10/22 15:44:14;;;;;;;27.00;10.95;;;;;;;16.99;54.99;100257.34;30764407;28;20059;-79
2021/10/22 15:59:17;;;;;;;19.05;10.02;;;;;;;16.73;56.38;100258.88;30817339;28;20085;-77
2021/10/22 16:29:22;;;;;;;23.30;10.25;;;;;;;16.34;57.17;100291.34;30817284;28;20436;-76
2021/10/22 16:44:23;;;;;;;21.58;9.98;;;;;;;16.33;57.47;100292.56;30800159;28;20051;-77
2021/10/22 16:59:25;;;;;;;17.63;9.63;;;;;;;16.29;57.33;100292.72;30761544;28;20059;-77
2021/10/22 17:14:28;;;;;;;21.30;11.32;;;;;;;16.14;57.82;100296.47;30755686;28;20393;-78
2021/10/22 17:29:29;;;;;;;20.63;11.98;;;;;;;15.98;57.86;100295.50;30776726;28;20439;-78
2021/10/22 17:44:32;;;;;;;24.20;12.70;;;;;;;15.68;58.57;100294.28;30767572;28;20164;-80
2021/10/22 17:59:34;;;;;;;29.20;13.57;;;;;;;15.41;58.64;100307.78;30741086;28;20047;-79
2021/10/22 18:14:36;;;;;;;22.07;11.90;;;;;;;15.07;59.17;100311.34;30757915;28;20063;-77
2021/10/22 18:29:43;;;;;;;21.63;12.27;;;;;;;14.66;59.79;100324.03;30794762;28;20067;-78
2021/10/22 18:44:45;;;;;;;28.40;16.63;;;;;;;14.30;61.05;100323.63;30768009;28;20070;-77
2021/10/22 18:59:47;;;;;;;27.23;13.63;;;;;;;13.99;62.78;100335.09;30817894;28;20051;-80
2021/10/22 19:14:59;;;;;;;25.67;14.97;;;;;;;13.79;62.67;100331.78;30720389;28;20055;-78
2021/10/22 19:30:05;;;;;;;28.33;13.53;;;;;;;13.63;63.37;100329.91;30774114;28;20089;-77
2021/10/22 19:45:07;;;;;;;;;;;;;;;13.55;65.93;100336.75;30777949;28;20067;-76
2021/10/22 20:00:09;;;;;;;27.50;13.67;;;;;;;13.31;65.48;100336.25;30770301;28;19931;-77
2021/10/22 20:15:13;;;;;;;44.77;32.10;;;;;;;13.18;65.83;100343.63;30751569;28;20093;-77
2021/10/22 20:30:18;;;;;;;34.57;23.27;;;;;;;13.03;66.64;100345.13;30789801;28;20526;-79
2021/10/22 20:45:21;;;;;;;32.65;19.42;;;;;;;12.99;67.70;100344.50;30744882;28;20062;-76
2021/10/22 21:00:23;;;;;;;35.60;20.33;;;;;;;12.84;69.44;100335.13;30770128;28;20039;-77
2021/10/22 21:15:25;;;;;;;23.47;13.67;;;;;;;12.75;69.31;100343.94;30757778;28;20073;-76
2021/10/22 21:30:27;;;;;;;22.80;11.57;;;;;;;12.67;69.61;100325.44;30769695;28;20058;-75
2021/10/22 21:45:29;;;;;;;20.17;11.13;;;;;;;12.73;70.35;100345.53;30751287;28;20058;-76
2021/10/22 22:00:31;;;;;;;18.83;10.10;;;;;;;12.68;71.15;100341.38;30782628;28;20061;-76
2021/10/22 22:15:34;;;;;;;16.27;9.87;;;;;;;12.59;71.84;100350.13;30782821;28;20262;-75
2021/10/22 22:30:35;;;;;;;20.13;11.00;;;;;;;12.62;71.84;100352.00;30765350;28;20066;-76
2021/10/22 22:45:38;;;;;;;14.53;10.20;;;;;;;12.66;71.82;100356.59;30767622;28;20050;-76
2021/10/22 23:00:39;;;;;;;18.20;10.87;;;;;;;12.45;73.09;100345.03;30767345;28;20061;-75
2021/10/22 23:15:41;;;;;;;18.57;9.80;;;;;;;12.32;73.20;100344.16;30826593;28;20051;-76
2021/10/22 23:30:43;;;;;;;20.13;10.47;;;;;;;12.08;73.99;100332.63;30823063;28;20047;-75
2021/10/22 23:45:45;;;;;;;21.30;11.13;;;;;;;11.82;75.92;100339.78;30811155;28;20058;-74
